sensor_id;sensor_type;location;lat;lon;timestamp;P1;durP1;ratioP1;P2;durP2;ratioP2
22973;SDS011;11653;50.848;4.584;2023-08-06T00:01:51;9.30;;;2.13;;
22973;SDS011;11653;50.848;4.584;2023-08-06T00:04:16;6.77;;;1.80;;
22973;SDS011;11653;50.848;4.584;2023-08-06T00:06:42;4.77;;;1.87;;
22973;SDS011;11653;50.848;4.584;2023-08-06T00:09:08;5.43;;;1.80;;
22973;SDS011;11653;50.848;4.584;2023-08-06T00:11:33;9.07;;;1.80;;
22973;SDS011;11653;50.848;4.584;2023-08-06T00:13:59;10.40;;;1.97;;
22973;SDS011;11653;50.848;4.584;2023-08-06T00:16:25;4.50;;;1.83;;
22973;SDS011;11653;50.848;4.584;2023-08-06T00:18:50;6.87;;;2.00;;
22973;SDS011;11653;50.848;4.584;2023-08-06T00:21:16;4.87;;;2.20;;
22973;SDS011;11653;50.848;4.584;2023-08-06T00:23:41;8.47;;;1.90;;
22973;SDS011;11653;50.848;4.584;2023-08-06T00:26:07;5.87;;;2.50;;
22973;SDS011;11653;50.848;4.584;2023-08-06T00:28:33;5.80;;;2.10;;
22973;SDS011;11653;50.848;4.584;2023-08-06T00:30:58;6.27;;;2.40;;
22973;SDS011;11653;50.848;4.584;2023-08-06T00:33:24;6.13;;;2.53;;
22973;SDS011;11653;50.848;4.584;2023-08-06T00:35:50;4.50;;;2.30;;
22973;SDS011;11653;50.848;4.584;2023-08-06T00:38:16;6.13;;;2.57;;
22973;SDS011;11653;50.848;4.584;2023-08-06T00:40:42;6.20;;;2.90;;
22973;SDS011;11653;50.848;4.584;2023-08-06T00:43:07;6.83;;;2.53;;
22973;SDS011;11653;50.848;4.584;2023-08-06T00:45:34;10.93;;;2.90;;
22973;SDS011;11653;50.848;4.584;2023-08-06T00:48:02;9.83;;;2.50;;
22973;SDS011;11653;50.848;4.584;2023-08-06T00:50:30;8.60;;;3.00;;
22973;SDS011;11653;50.848;4.584;2023-08-06T00:52:55;6.13;;;2.90;;
22973;SDS011;11653;50.848;4.584;2023-08-06T00:55:21;6.47;;;3.13;;
22973;SDS011;11653;50.848;4.584;2023-08-06T00:57:47;7.13;;;3.23;;
22973;SDS011;11653;50.848;4.584;2023-08-06T01:00:13;12.80;;;3.63;;
22973;SDS011;11653;50.848;4.584;2023-08-06T01:02:39;13.43;;;3.77;;
22973;SDS011;11653;50.848;4.584;2023-08-06T01:05:05;7.47;;;3.70;;
22973;SDS011;11653;50.848;4.584;2023-08-06T01:15:43;9.33;;;3.97;;
22973;SDS011;11653;50.848;4.584;2023-08-06T01:18:12;10.67;;;4.27;;
22973;SDS011;11653;50.848;4.584;2023-08-06T01:20:38;8.03;;;4.70;;
22973;SDS011;11653;50.848;4.584;2023-08-06T01:23:04;8.67;;;4.70;;
22973;SDS011;11653;50.848;4.584;2023-08-06T01:25:31;8.77;;;4.93;;
22973;SDS011;11653;50.848;4.584;2023-08-06T01:28:01;12.10;;;4.93;;
22973;SDS011;11653;50.848;4.584;2023-08-06T01:30:33;14.07;;;6.00;;
22973;SDS011;11653;50.848;4.584;2023-08-06T01:33:04;8.40;;;6.03;;
22973;SDS011;11653;50.848;4.584;2023-08-06T01:35:33;14.30;;;5.87;;
22973;SDS011;11653;50.848;4.584;2023-08-06T01:38:00;15.30;;;7.00;;
22973;SDS011;11653;50.848;4.584;2023-08-06T01:40:27;14.80;;;6.50;;
22973;SDS011;11653;50.848;4.584;2023-08-06T01:42:54;12.67;;;6.57;;
22973;SDS011;11653;50.848;4.584;2023-08-06T01:45:20;11.33;;;6.20;;
22973;SDS011;11653;50.848;4.584;2023-08-06T01:47:45;7.73;;;6.50;;
22973;SDS011;11653;50.848;4.584;2023-08-06T01:50:11;9.00;;;6.10;;
22973;SDS011;11653;50.848;4.584;2023-08-06T01:52:37;13.30;;;6.93;;
22973;SDS011;11653;50.848;4.584;2023-08-06T01:55:02;11.60;;;6.83;;
22973;SDS011;11653;50.848;4.584;2023-08-06T01:57:28;12.67;;;7.30;;
22973;SDS011;11653;50.848;4.584;2023-08-06T01:59:54;12.77;;;7.53;;
22973;SDS011;11653;50.848;4.584;2023-08-06T02:02:19;15.47;;;7.70;;
22973;SDS011;11653;50.848;4.584;2023-08-06T02:04:45;13.63;;;7.80;;
22973;SDS011;11653;50.848;4.584;2023-08-06T02:07:10;13.37;;;7.03;;
22973;SDS011;11653;50.848;4.584;2023-08-06T02:09:36;15.40;;;7.70;;
22973;SDS011;11653;50.848;4.584;2023-08-06T02:12:02;16.17;;;7.67;;
22973;SDS011;11653;50.848;4.584;2023-08-06T02:14:28;17.17;;;7.63;;
22973;SDS011;11653;50.848;4.584;2023-08-06T02:16:53;17.20;;;8.93;;
22973;SDS011;11653;50.848;4.584;2023-08-06T02:19:19;15.17;;;7.83;;
22973;SDS011;11653;50.848;4.584;2023-08-06T02:21:45;13.13;;;7.37;;
22973;SDS011;11653;50.848;4.584;2023-08-06T02:24:10;13.37;;;7.53;;
22973;SDS011;11653;50.848;4.584;2023-08-06T02:26:36;12.33;;;7.53;;
22973;SDS011;11653;50.848;4.584;2023-08-06T02:29:02;19.27;;;8.03;;
22973;SDS011;11653;50.848;4.584;2023-08-06T02:31:27;14.30;;;7.63;;
22973;SDS011;11653;50.848;4.584;2023-08-06T02:33:53;16.57;;;7.10;;
22973;SDS011;11653;50.848;4.584;2023-08-06T02:36:19;14.77;;;8.50;;
22973;SDS011;11653;50.848;4.584;2023-08-06T02:38:44;12.77;;;7.00;;
22973;SDS011;11653;50.848;4.584;2023-08-06T02:41:10;16.80;;;7.00;;
22973;SDS011;11653;50.848;4.584;2023-08-06T02:43:35;13.60;;;6.40;;
22973;SDS011;11653;50.848;4.584;2023-08-06T02:46:01;14.60;;;6.57;;
22973;SDS011;11653;50.848;4.584;2023-08-06T02:48:27;14.03;;;5.60;;
22973;SDS011;11653;50.848;4.584;2023-08-06T02:50:53;8.37;;;4.83;;
22973;SDS011;11653;50.848;4.584;2023-08-06T02:53:21;9.63;;;4.53;;
22973;SDS011;11653;50.848;4.584;2023-08-06T02:55:47;10.23;;;4.77;;
22973;SDS011;11653;50.848;4.584;2023-08-06T02:58:15;15.40;;;4.27;;
22973;SDS011;11653;50.848;4.584;2023-08-06T03:00:42;11.43;;;4.70;;
22973;SDS011;11653;50.848;4.584;2023-08-06T03:03:08;11.17;;;4.83;;
22973;SDS011;11653;50.848;4.584;2023-08-06T03:05:34;11.27;;;4.63;;
22973;SDS011;11653;50.848;4.584;2023-08-06T03:08:00;9.70;;;4.63;;
22973;SDS011;11653;50.848;4.584;2023-08-06T03:10:26;11.93;;;5.00;;
22973;SDS011;11653;50.848;4.584;2023-08-06T03:12:51;12.00;;;4.60;;
22973;SDS011;11653;50.848;4.584;2023-08-06T03:15:17;11.53;;;5.30;;
22973;SDS011;11653;50.848;4.584;2023-08-06T03:17:43;13.53;;;5.20;;
22973;SDS011;11653;50.848;4.584;2023-08-06T03:20:09;14.77;;;4.93;;
22973;SDS011;11653;50.848;4.584;2023-08-06T03:22:35;15.70;;;5.47;;
22973;SDS011;11653;50.848;4.584;2023-08-06T03:25:01;17.87;;;5.80;;
22973;SDS011;11653;50.848;4.584;2023-08-06T03:27:27;16.17;;;5.97;;
22973;SDS011;11653;50.848;4.584;2023-08-06T03:29:53;16.00;;;6.70;;
22973;SDS011;11653;50.848;4.584;2023-08-06T03:32:18;12.77;;;6.70;;
22973;SDS011;11653;50.848;4.584;2023-08-06T03:34:44;18.47;;;7.00;;
22973;SDS011;11653;50.848;4.584;2023-08-06T03:37:10;16.13;;;7.47;;
22973;SDS011;11653;50.848;4.584;2023-08-06T03:39:35;16.97;;;8.50;;
22973;SDS011;11653;50.848;4.584;2023-08-06T03:42:01;21.83;;;9.83;;
22973;SDS011;11653;50.848;4.584;2023-08-06T03:44:26;20.60;;;9.43;;
22973;SDS011;11653;50.848;4.584;2023-08-06T03:46:53;25.17;;;10.53;;
22973;SDS011;11653;50.848;4.584;2023-08-06T03:49:19;25.73;;;11.00;;
22973;SDS011;11653;50.848;4.584;2023-08-06T03:51:44;25.97;;;12.17;;
22973;SDS011;11653;50.848;4.584;2023-08-06T03:54:10;30.07;;;13.13;;
22973;SDS011;11653;50.848;4.584;2023-08-06T03:56:36;29.10;;;14.87;;
22973;SDS011;11653;50.848;4.584;2023-08-06T03:59:02;34.03;;;16.07;;
22973;SDS011;11653;50.848;4.584;2023-08-06T04:01:27;38.73;;;15.87;;
22973;SDS011;11653;50.848;4.584;2023-08-06T04:03:53;39.00;;;17.27;;
22973;SDS011;11653;50.848;4.584;2023-08-06T04:06:18;41.73;;;18.80;;
22973;SDS011;11653;50.848;4.584;2023-08-06T04:08:44;35.13;;;16.77;;
22973;SDS011;11653;50.848;4.584;2023-08-06T04:11:10;42.33;;;16.90;;
22973;SDS011;11653;50.848;4.584;2023-08-06T04:13:35;42.30;;;17.33;;
22973;SDS011;11653;50.848;4.584;2023-08-06T04:16:01;40.53;;;16.83;;
22973;SDS011;11653;50.848;4.584;2023-08-06T04:18:28;33.00;;;16.40;;
22973;SDS011;11653;50.848;4.584;2023-08-06T04:20:54;28.60;;;14.30;;
22973;SDS011;11653;50.848;4.584;2023-08-06T04:23:20;29.37;;;14.17;;
22973;SDS011;11653;50.848;4.584;2023-08-06T04:25:46;24.10;;;10.50;;
22973;SDS011;11653;50.848;4.584;2023-08-06T04:28:11;16.27;;;9.50;;
22973;SDS011;11653;50.848;4.584;2023-08-06T04:30:37;8.53;;;5.30;;
22973;SDS011;11653;50.848;4.584;2023-08-06T04:33:03;9.07;;;3.30;;
22973;SDS011;11653;50.848;4.584;2023-08-06T04:35:29;2.77;;;2.20;;
22973;SDS011;11653;50.848;4.584;2023-08-06T04:37:54;1.83;;;1.63;;
22973;SDS011;11653;50.848;4.584;2023-08-06T04:40:20;2.17;;;1.50;;
22973;SDS011;11653;50.848;4.584;2023-08-06T04:42:45;1.77;;;1.67;;
22973;SDS011;11653;50.848;4.584;2023-08-06T04:45:11;2.47;;;1.70;;
22973;SDS011;11653;50.848;4.584;2023-08-06T04:47:37;2.27;;;2.00;;
22973;SDS011;11653;50.848;4.584;2023-08-06T04:50:02;2.43;;;2.27;;
22973;SDS011;11653;50.848;4.584;2023-08-06T04:52:28;4.37;;;2.80;;
22973;SDS011;11653;50.848;4.584;2023-08-06T04:54:54;5.77;;;3.43;;
22973;SDS011;11653;50.848;4.584;2023-08-06T04:57:20;7.20;;;3.80;;
22973;SDS011;11653;50.848;4.584;2023-08-06T04:59:46;6.57;;;4.63;;
22973;SDS011;11653;50.848;4.584;2023-08-06T05:02:11;10.13;;;5.00;;
22973;SDS011;11653;50.848;4.584;2023-08-06T05:04:37;8.27;;;4.40;;
22973;SDS011;11653;50.848;4.584;2023-08-06T05:07:03;8.13;;;5.03;;
22973;SDS011;11653;50.848;4.584;2023-08-06T05:09:30;12.87;;;5.53;;
22973;SDS011;11653;50.848;4.584;2023-08-06T05:11:55;7.23;;;4.20;;
22973;SDS011;11653;50.848;4.584;2023-08-06T05:14:21;9.50;;;5.13;;
22973;SDS011;11653;50.848;4.584;2023-08-06T05:16:47;9.13;;;5.77;;
22973;SDS011;11653;50.848;4.584;2023-08-06T05:19:12;8.60;;;5.70;;
22973;SDS011;11653;50.848;4.584;2023-08-06T05:21:38;11.70;;;6.27;;
22973;SDS011;11653;50.848;4.584;2023-08-06T05:24:04;11.83;;;7.20;;
22973;SDS011;11653;50.848;4.584;2023-08-06T05:26:29;12.93;;;6.20;;
22973;SDS011;11653;50.848;4.584;2023-08-06T05:28:55;9.60;;;5.77;;
22973;SDS011;11653;50.848;4.584;2023-08-06T05:31:20;11.60;;;5.50;;
22973;SDS011;11653;50.848;4.584;2023-08-06T05:33:46;8.63;;;5.60;;
22973;SDS011;11653;50.848;4.584;2023-08-06T05:36:12;12.43;;;5.23;;
22973;SDS011;11653;50.848;4.584;2023-08-06T05:38:37;10.20;;;5.63;;
22973;SDS011;11653;50.848;4.584;2023-08-06T05:41:03;11.27;;;5.60;;
22973;SDS011;11653;50.848;4.584;2023-08-06T05:43:29;9.37;;;5.87;;
22973;SDS011;11653;50.848;4.584;2023-08-06T05:45:55;7.67;;;4.57;;
22973;SDS011;11653;50.848;4.584;2023-08-06T05:48:21;8.77;;;4.90;;
22973;SDS011;11653;50.848;4.584;2023-08-06T05:50:49;8.93;;;5.30;;
22973;SDS011;11653;50.848;4.584;2023-08-06T05:53:17;13.37;;;5.20;;
22973;SDS011;11653;50.848;4.584;2023-08-06T05:55:43;15.47;;;5.33;;
22973;SDS011;11653;50.848;4.584;2023-08-06T05:58:09;9.10;;;5.10;;
22973;SDS011;11653;50.848;4.584;2023-08-06T06:00:35;12.17;;;4.67;;
22973;SDS011;11653;50.848;4.584;2023-08-06T06:03:01;9.47;;;4.80;;
22973;SDS011;11653;50.848;4.584;2023-08-06T06:05:27;12.00;;;5.03;;
22973;SDS011;11653;50.848;4.584;2023-08-06T06:07:53;10.13;;;4.80;;
22973;SDS011;11653;50.848;4.584;2023-08-06T06:10:19;10.17;;;4.90;;
22973;SDS011;11653;50.848;4.584;2023-08-06T06:12:44;13.10;;;5.50;;
22973;SDS011;11653;50.848;4.584;2023-08-06T06:15:10;8.93;;;4.73;;
22973;SDS011;11653;50.848;4.584;2023-08-06T06:17:36;14.53;;;5.63;;
22973;SDS011;11653;50.848;4.584;2023-08-06T06:20:01;12.13;;;4.80;;
22973;SDS011;11653;50.848;4.584;2023-08-06T06:22:29;10.67;;;4.93;;
22973;SDS011;11653;50.848;4.584;2023-08-06T06:24:55;13.73;;;5.07;;
22973;SDS011;11653;50.848;4.584;2023-08-06T06:27:20;11.40;;;4.93;;
22973;SDS011;11653;50.848;4.584;2023-08-06T06:29:46;17.57;;;5.77;;
22973;SDS011;11653;50.848;4.584;2023-08-06T06:32:11;11.10;;;5.73;;
22973;SDS011;11653;50.848;4.584;2023-08-06T06:34:37;10.97;;;4.90;;
22973;SDS011;11653;50.848;4.584;2023-08-06T06:37:03;15.17;;;6.00;;
22973;SDS011;11653;50.848;4.584;2023-08-06T06:39:29;10.87;;;5.83;;
22973;SDS011;11653;50.848;4.584;2023-08-06T06:41:54;13.30;;;5.13;;
22973;SDS011;11653;50.848;4.584;2023-08-06T06:44:20;15.53;;;4.43;;
22973;SDS011;11653;50.848;4.584;2023-08-06T06:46:46;8.70;;;4.43;;
22973;SDS011;11653;50.848;4.584;2023-08-06T06:49:12;11.97;;;4.87;;
22973;SDS011;11653;50.848;4.584;2023-08-06T06:51:37;14.23;;;4.70;;
22973;SDS011;11653;50.848;4.584;2023-08-06T06:54:03;12.17;;;4.37;;
22973;SDS011;11653;50.848;4.584;2023-08-06T06:56:29;22.30;;;5.17;;
22973;SDS011;11653;50.848;4.584;2023-08-06T06:58:54;9.23;;;4.00;;
22973;SDS011;11653;50.848;4.584;2023-08-06T07:01:20;14.57;;;5.23;;
22973;SDS011;11653;50.848;4.584;2023-08-06T07:03:46;9.03;;;3.93;;
22973;SDS011;11653;50.848;4.584;2023-08-06T07:06:11;14.97;;;4.80;;
22973;SDS011;11653;50.848;4.584;2023-08-06T07:08:37;14.57;;;4.00;;
22973;SDS011;11653;50.848;4.584;2023-08-06T07:11:04;13.00;;;4.97;;
22973;SDS011;11653;50.848;4.584;2023-08-06T07:13:31;16.53;;;4.47;;
22973;SDS011;11653;50.848;4.584;2023-08-06T07:15:57;11.40;;;4.70;;
22973;SDS011;11653;50.848;4.584;2023-08-06T07:18:23;11.33;;;4.33;;
22973;SDS011;11653;50.848;4.584;2023-08-06T07:20:53;11.47;;;4.47;;
22973;SDS011;11653;50.848;4.584;2023-08-06T07:23:20;16.37;;;5.53;;
22973;SDS011;11653;50.848;4.584;2023-08-06T07:25:47;11.63;;;3.43;;
22973;SDS011;11653;50.848;4.584;2023-08-06T07:28:13;9.80;;;3.83;;
22973;SDS011;11653;50.848;4.584;2023-08-06T07:30:40;12.23;;;4.03;;
22973;SDS011;11653;50.848;4.584;2023-08-06T07:33:06;11.70;;;2.87;;
22973;SDS011;11653;50.848;4.584;2023-08-06T07:35:32;12.30;;;3.93;;
22973;SDS011;11653;50.848;4.584;2023-08-06T07:37:58;8.17;;;4.17;;
22973;SDS011;11653;50.848;4.584;2023-08-06T07:40:24;10.30;;;3.17;;
22973;SDS011;11653;50.848;4.584;2023-08-06T07:42:49;12.50;;;3.93;;
22973;SDS011;11653;50.848;4.584;2023-08-06T07:45:15;8.97;;;3.37;;
22973;SDS011;11653;50.848;4.584;2023-08-06T07:47:41;12.30;;;2.77;;
22973;SDS011;11653;50.848;4.584;2023-08-06T07:50:08;8.73;;;1.80;;
22973;SDS011;11653;50.848;4.584;2023-08-06T07:52:34;10.63;;;2.23;;
22973;SDS011;11653;50.848;4.584;2023-08-06T07:54:59;11.90;;;3.17;;
22973;SDS011;11653;50.848;4.584;2023-08-06T07:57:26;6.63;;;2.63;;
22973;SDS011;11653;50.848;4.584;2023-08-06T07:59:52;13.30;;;2.97;;
22973;SDS011;11653;50.848;4.584;2023-08-06T08:02:19;10.40;;;2.43;;
22973;SDS011;11653;50.848;4.584;2023-08-06T08:04:44;8.53;;;2.43;;
22973;SDS011;11653;50.848;4.584;2023-08-06T08:07:12;11.07;;;2.70;;
22973;SDS011;11653;50.848;4.584;2023-08-06T08:09:38;14.30;;;2.50;;
22973;SDS011;11653;50.848;4.584;2023-08-06T08:12:04;7.70;;;2.20;;
22973;SDS011;11653;50.848;4.584;2023-08-06T08:14:30;12.33;;;2.43;;
22973;SDS011;11653;50.848;4.584;2023-08-06T08:17:00;10.53;;;2.13;;
22973;SDS011;11653;50.848;4.584;2023-08-06T08:19:27;15.17;;;2.57;;
22973;SDS011;11653;50.848;4.584;2023-08-06T08:21:53;11.90;;;2.07;;
22973;SDS011;11653;50.848;4.584;2023-08-06T08:24:19;10.53;;;1.87;;
22973;SDS011;11653;50.848;4.584;2023-08-06T08:26:48;5.53;;;1.67;;
22973;SDS011;11653;50.848;4.584;2023-08-06T08:29:17;12.20;;;2.07;;
22973;SDS011;11653;50.848;4.584;2023-08-06T08:31:44;10.13;;;2.37;;
22973;SDS011;11653;50.848;4.584;2023-08-06T08:34:09;9.27;;;2.13;;
22973;SDS011;11653;50.848;4.584;2023-08-06T08:36:35;8.17;;;1.53;;
22973;SDS011;11653;50.848;4.584;2023-08-06T08:39:01;5.00;;;1.70;;
22973;SDS011;11653;50.848;4.584;2023-08-06T08:41:30;5.47;;;1.53;;
22973;SDS011;11653;50.848;4.584;2023-08-06T08:43:56;5.67;;;1.43;;
22973;SDS011;11653;50.848;4.584;2023-08-06T08:46:27;6.47;;;1.40;;
22973;SDS011;11653;50.848;4.584;2023-08-06T08:48:55;7.37;;;1.77;;
22973;SDS011;11653;50.848;4.584;2023-08-06T08:51:23;5.03;;;2.00;;
22973;SDS011;11653;50.848;4.584;2023-08-06T08:53:50;4.97;;;1.60;;
22973;SDS011;11653;50.848;4.584;2023-08-06T08:56:20;7.40;;;1.73;;
22973;SDS011;11653;50.848;4.584;2023-08-06T08:58:46;6.53;;;1.43;;
22973;SDS011;11653;50.848;4.584;2023-08-06T09:01:12;7.90;;;1.63;;
22973;SDS011;11653;50.848;4.584;2023-08-06T09:03:38;8.43;;;2.37;;
22973;SDS011;11653;50.848;4.584;2023-08-06T09:06:04;7.60;;;1.60;;
22973;SDS011;11653;50.848;4.584;2023-08-06T09:08:34;8.33;;;2.10;;
22973;SDS011;11653;50.848;4.584;2023-08-06T09:11:04;9.47;;;2.00;;
22973;SDS011;11653;50.848;4.584;2023-08-06T09:13:34;6.90;;;1.47;;
22973;SDS011;11653;50.848;4.584;2023-08-06T09:16:02;4.27;;;1.67;;
22973;SDS011;11653;50.848;4.584;2023-08-06T09:18:29;10.73;;;2.03;;
22973;SDS011;11653;50.848;4.584;2023-08-06T09:20:56;8.30;;;1.70;;
22973;SDS011;11653;50.848;4.584;2023-08-06T09:23:28;9.60;;;1.93;;
22973;SDS011;11653;50.848;4.584;2023-08-06T09:25:55;4.77;;;1.23;;
22973;SDS011;11653;50.848;4.584;2023-08-06T09:28:22;8.70;;;1.70;;
22973;SDS011;11653;50.848;4.584;2023-08-06T09:30:49;6.53;;;1.60;;
22973;SDS011;11653;50.848;4.584;2023-08-06T09:33:18;8.67;;;2.10;;
22973;SDS011;11653;50.848;4.584;2023-08-06T09:35:45;9.23;;;1.70;;
22973;SDS011;11653;50.848;4.584;2023-08-06T09:38:12;4.17;;;2.07;;
22973;SDS011;11653;50.848;4.584;2023-08-06T09:40:38;15.10;;;2.83;;
22973;SDS011;11653;50.848;4.584;2023-08-06T09:43:04;10.63;;;2.43;;
22973;SDS011;11653;50.848;4.584;2023-08-06T09:45:31;6.07;;;2.03;;
22973;SDS011;11653;50.848;4.584;2023-08-06T09:48:04;9.93;;;1.93;;
22973;SDS011;11653;50.848;4.584;2023-08-06T09:50:33;7.57;;;2.10;;
22973;SDS011;11653;50.848;4.584;2023-08-06T09:53:01;5.43;;;2.00;;
22973;SDS011;11653;50.848;4.584;2023-08-06T09:55:31;5.70;;;1.80;;
22973;SDS011;11653;50.848;4.584;2023-08-06T09:57:58;8.70;;;2.20;;
22973;SDS011;11653;50.848;4.584;2023-08-06T10:00:24;9.83;;;2.20;;
22973;SDS011;11653;50.848;4.584;2023-08-06T10:02:50;15.10;;;2.50;;
22973;SDS011;11653;50.848;4.584;2023-08-06T10:05:19;7.07;;;3.03;;
22973;SDS011;11653;50.848;4.584;2023-08-06T10:07:46;9.90;;;2.30;;
22973;SDS011;11653;50.848;4.584;2023-08-06T10:10:12;9.50;;;2.43;;
22973;SDS011;11653;50.848;4.584;2023-08-06T10:12:48;10.90;;;3.00;;
22973;SDS011;11653;50.848;4.584;2023-08-06T10:15:17;6.63;;;2.20;;
22973;SDS011;11653;50.848;4.584;2023-08-06T10:17:47;8.77;;;2.80;;
22973;SDS011;11653;50.848;4.584;2023-08-06T10:20:16;11.57;;;2.90;;
22973;SDS011;11653;50.848;4.584;2023-08-06T10:22:43;9.30;;;2.30;;
22973;SDS011;11653;50.848;4.584;2023-08-06T10:25:10;10.27;;;2.90;;
22973;SDS011;11653;50.848;4.584;2023-08-06T10:27:39;12.83;;;3.60;;
22973;SDS011;11653;50.848;4.584;2023-08-06T10:30:31;9.07;;;2.70;;
22973;SDS011;11653;50.848;4.584;2023-08-06T10:33:02;8.70;;;2.87;;
22973;SDS011;11653;50.848;4.584;2023-08-06T10:38:03;11.53;;;2.90;;
22973;SDS011;11653;50.848;4.584;2023-08-06T10:40:37;7.53;;;2.60;;
22973;SDS011;11653;50.848;4.584;2023-08-06T10:43:05;9.47;;;2.70;;
22973;SDS011;11653;50.848;4.584;2023-08-06T10:45:34;12.30;;;2.43;;
22973;SDS011;11653;50.848;4.584;2023-08-06T10:48:00;3.67;;;1.80;;
22973;SDS011;11653;50.848;4.584;2023-08-06T10:50:26;4.77;;;2.00;;
22973;SDS011;11653;50.848;4.584;2023-08-06T10:52:52;8.93;;;2.40;;
22973;SDS011;11653;50.848;4.584;2023-08-06T10:55:27;6.80;;;1.87;;
22973;SDS011;11653;50.848;4.584;2023-08-06T10:57:54;6.77;;;2.03;;
22973;SDS011;11653;50.848;4.584;2023-08-06T11:00:21;8.40;;;1.97;;
22973;SDS011;11653;50.848;4.584;2023-08-06T11:02:48;6.90;;;1.57;;
22973;SDS011;11653;50.848;4.584;2023-08-06T11:05:15;8.37;;;2.53;;
22973;SDS011;11653;50.848;4.584;2023-08-06T11:07:41;8.17;;;2.00;;
22973;SDS011;11653;50.848;4.584;2023-08-06T11:10:08;9.40;;;2.00;;
22973;SDS011;11653;50.848;4.584;2023-08-06T11:12:35;7.53;;;2.10;;
22973;SDS011;11653;50.848;4.584;2023-08-06T11:15:01;8.80;;;2.50;;
22973;SDS011;11653;50.848;4.584;2023-08-06T11:17:28;6.70;;;2.23;;
22973;SDS011;11653;50.848;4.584;2023-08-06T11:19:54;6.90;;;2.40;;
22973;SDS011;11653;50.848;4.584;2023-08-06T11:22:20;8.63;;;2.57;;
22973;SDS011;11653;50.848;4.584;2023-08-06T11:24:47;8.77;;;2.87;;
22973;SDS011;11653;50.848;4.584;2023-08-06T11:27:14;9.70;;;3.23;;
22973;SDS011;11653;50.848;4.584;2023-08-06T11:29:41;10.70;;;2.80;;
22973;SDS011;11653;50.848;4.584;2023-08-06T11:32:07;9.40;;;2.90;;
22973;SDS011;11653;50.848;4.584;2023-08-06T11:34:34;7.97;;;2.87;;
22973;SDS011;11653;50.848;4.584;2023-08-06T11:37:00;12.07;;;4.10;;
22973;SDS011;11653;50.848;4.584;2023-08-06T11:39:28;10.10;;;2.87;;
22973;SDS011;11653;50.848;4.584;2023-08-06T11:41:54;10.43;;;3.67;;
22973;SDS011;11653;50.848;4.584;2023-08-06T11:44:19;6.80;;;2.23;;
22973;SDS011;11653;50.848;4.584;2023-08-06T11:46:52;10.10;;;2.40;;
22973;SDS011;11653;50.848;4.584;2023-08-06T11:49:21;6.40;;;2.23;;
22973;SDS011;11653;50.848;4.584;2023-08-06T11:52:22;7.17;;;1.57;;
22973;SDS011;11653;50.848;4.584;2023-08-06T11:57:29;6.97;;;2.10;;
22973;SDS011;11653;50.848;4.584;2023-08-06T12:00:18;10.30;;;2.13;;
22973;SDS011;11653;50.848;4.584;2023-08-06T12:02:45;7.13;;;2.27;;
22973;SDS011;11653;50.848;4.584;2023-08-06T12:07:44;6.17;;;2.67;;
22973;SDS011;11653;50.848;4.584;2023-08-06T12:10:12;6.70;;;2.10;;
22973;SDS011;11653;50.848;4.584;2023-08-06T12:12:38;6.10;;;1.80;;
22973;SDS011;11653;50.848;4.584;2023-08-06T12:15:04;4.43;;;1.40;;
22973;SDS011;11653;50.848;4.584;2023-08-06T12:17:31;6.17;;;1.87;;
22973;SDS011;11653;50.848;4.584;2023-08-06T12:19:57;7.77;;;1.60;;
22973;SDS011;11653;50.848;4.584;2023-08-06T12:22:23;10.00;;;1.50;;
22973;SDS011;11653;50.848;4.584;2023-08-06T12:24:49;11.27;;;2.17;;
22973;SDS011;11653;50.848;4.584;2023-08-06T12:27:15;7.33;;;3.00;;
22973;SDS011;11653;50.848;4.584;2023-08-06T12:29:44;5.33;;;2.27;;
22973;SDS011;11653;50.848;4.584;2023-08-06T12:32:13;4.10;;;1.60;;
22973;SDS011;11653;50.848;4.584;2023-08-06T12:34:40;14.77;;;3.80;;
22973;SDS011;11653;50.848;4.584;2023-08-06T12:37:07;12.70;;;2.87;;
22973;SDS011;11653;50.848;4.584;2023-08-06T12:39:33;7.70;;;1.93;;
22973;SDS011;11653;50.848;4.584;2023-08-06T12:42:00;7.80;;;1.87;;
22973;SDS011;11653;50.848;4.584;2023-08-06T12:44:27;6.53;;;1.90;;
22973;SDS011;11653;50.848;4.584;2023-08-06T12:46:53;7.80;;;2.37;;
22973;SDS011;11653;50.848;4.584;2023-08-06T12:49:19;8.00;;;2.53;;
22973;SDS011;11653;50.848;4.584;2023-08-06T12:51:51;5.50;;;1.60;;
22973;SDS011;11653;50.848;4.584;2023-08-06T12:54:18;8.23;;;1.60;;
22973;SDS011;11653;50.848;4.584;2023-08-06T12:56:47;3.70;;;1.10;;
22973;SDS011;11653;50.848;4.584;2023-08-06T12:59:14;12.63;;;2.80;;
22973;SDS011;11653;50.848;4.584;2023-08-06T13:01:40;11.50;;;2.20;;
22973;SDS011;11653;50.848;4.584;2023-08-06T13:04:07;13.97;;;4.43;;
22973;SDS011;11653;50.848;4.584;2023-08-06T13:06:32;9.10;;;2.50;;
22973;SDS011;11653;50.848;4.584;2023-08-06T13:09:02;8.13;;;1.80;;
22973;SDS011;11653;50.848;4.584;2023-08-06T13:11:29;3.47;;;1.53;;
22973;SDS011;11653;50.848;4.584;2023-08-06T13:13:58;6.90;;;1.80;;
22973;SDS011;11653;50.848;4.584;2023-08-06T13:16:28;6.53;;;1.90;;
22973;SDS011;11653;50.848;4.584;2023-08-06T13:18:54;10.23;;;1.90;;
22973;SDS011;11653;50.848;4.584;2023-08-06T13:21:20;9.57;;;2.70;;
22973;SDS011;11653;50.848;4.584;2023-08-06T13:23:45;7.10;;;1.77;;
22973;SDS011;11653;50.848;4.584;2023-08-06T13:26:12;6.90;;;2.30;;
22973;SDS011;11653;50.848;4.584;2023-08-06T13:28:38;11.37;;;2.73;;
22973;SDS011;11653;50.848;4.584;2023-08-06T13:31:04;7.67;;;2.37;;
22973;SDS011;11653;50.848;4.584;2023-08-06T13:33:30;5.20;;;1.93;;
22973;SDS011;11653;50.848;4.584;2023-08-06T13:35:55;7.87;;;1.83;;
22973;SDS011;11653;50.848;4.584;2023-08-06T13:38:21;10.70;;;2.40;;
22973;SDS011;11653;50.848;4.584;2023-08-06T13:40:47;9.13;;;2.03;;
22973;SDS011;11653;50.848;4.584;2023-08-06T13:43:13;8.70;;;2.10;;
22973;SDS011;11653;50.848;4.584;2023-08-06T13:45:41;6.87;;;2.10;;
22973;SDS011;11653;50.848;4.584;2023-08-06T13:48:06;8.43;;;1.77;;
22973;SDS011;11653;50.848;4.584;2023-08-06T13:50:32;8.17;;;1.97;;
22973;SDS011;11653;50.848;4.584;2023-08-06T13:52:58;3.70;;;1.40;;
22973;SDS011;11653;50.848;4.584;2023-08-06T13:55:23;5.97;;;2.03;;
22973;SDS011;11653;50.848;4.584;2023-08-06T13:57:49;11.23;;;2.03;;
22973;SDS011;11653;50.848;4.584;2023-08-06T14:00:17;6.53;;;1.50;;
22973;SDS011;11653;50.848;4.584;2023-08-06T14:02:42;8.73;;;2.10;;
22973;SDS011;11653;50.848;4.584;2023-08-06T14:05:11;12.53;;;1.90;;
22973;SDS011;11653;50.848;4.584;2023-08-06T14:07:37;3.30;;;1.40;;
22973;SDS011;11653;50.848;4.584;2023-08-06T14:10:02;4.70;;;1.70;;
22973;SDS011;11653;50.848;4.584;2023-08-06T14:12:28;7.00;;;1.93;;
22973;SDS011;11653;50.848;4.584;2023-08-06T14:14:54;6.77;;;1.80;;
22973;SDS011;11653;50.848;4.584;2023-08-06T14:17:19;11.80;;;1.90;;
22973;SDS011;11653;50.848;4.584;2023-08-06T14:19:45;9.33;;;1.63;;
22973;SDS011;11653;50.848;4.584;2023-08-06T14:22:11;5.60;;;1.60;;
22973;SDS011;11653;50.848;4.584;2023-08-06T14:24:37;10.40;;;2.03;;
22973;SDS011;11653;50.848;4.584;2023-08-06T14:27:02;8.07;;;1.97;;
22973;SDS011;11653;50.848;4.584;2023-08-06T14:29:29;6.67;;;2.33;;
22973;SDS011;11653;50.848;4.584;2023-08-06T14:31:54;22.17;;;13.50;;
22973;SDS011;11653;50.848;4.584;2023-08-06T14:34:20;18.00;;;8.57;;
22973;SDS011;11653;50.848;4.584;2023-08-06T14:36:46;8.40;;;1.83;;
22973;SDS011;11653;50.848;4.584;2023-08-06T14:39:12;10.00;;;2.60;;
22973;SDS011;11653;50.848;4.584;2023-08-06T14:41:37;11.07;;;2.30;;
22973;SDS011;11653;50.848;4.584;2023-08-06T14:44:03;10.80;;;2.60;;
22973;SDS011;11653;50.848;4.584;2023-08-06T14:46:29;10.70;;;2.40;;
22973;SDS011;11653;50.848;4.584;2023-08-06T14:48:54;9.10;;;1.70;;
22973;SDS011;11653;50.848;4.584;2023-08-06T14:51:20;6.00;;;1.93;;
22973;SDS011;11653;50.848;4.584;2023-08-06T14:53:46;8.87;;;2.20;;